sensor_id;sensor_type;location;lat;lon;timestamp;temperature;humidity
18361;SHT31;9308;48.550;9.108;2023-03-23T00:00:54;14.09;53.55
18361;SHT31;9308;48.550;9.108;2023-03-23T00:03:21;14.18;54.76
18361;SHT31;9308;48.550;9.108;2023-03-23T00:05:47;14.22;53.58
18361;SHT31;9308;48.550;9.108;2023-03-23T00:08:19;14.10;54.08
18361;SHT31;9308;48.550;9.108;2023-03-23T00:10:51;14.14;54.75
18361;SHT31;9308;48.550;9.108;2023-03-23T00:13:19;14.00;53.82
18361;SHT31;9308;48.550;9.108;2023-03-23T00:15:46;14.06;53.21
18361;SHT31;9308;48.550;9.108;2023-03-23T00:18:15;14.04;55.98
18361;SHT31;9308;48.550;9.108;2023-03-23T00:20:51;14.03;55.79
18361;SHT31;9308;48.550;9.108;2023-03-23T00:23:17;13.92;56.33
18361;SHT31;9308;48.550;9.108;2023-03-23T00:25:55;14.30;55.02
18361;SHT31;9308;48.550;9.108;2023-03-23T00:28:26;14.27;54.55
18361;SHT31;9308;48.550;9.108;2023-03-23T00:31:03;14.04;56.39
18361;SHT31;9308;48.550;9.108;2023-03-23T00:33:33;13.99;56.67
18361;SHT31;9308;48.550;9.108;2023-03-23T00:36:07;13.86;57.24
18361;SHT31;9308;48.550;9.108;2023-03-23T00:38:34;13.86;56.54
18361;SHT31;9308;48.550;9.108;2023-03-23T00:41:01;13.69;56.58
18361;SHT31;9308;48.550;9.108;2023-03-23T00:43:27;13.75;57.37
18361;SHT31;9308;48.550;9.108;2023-03-23T00:45:55;13.82;56.97
18361;SHT31;9308;48.550;9.108;2023-03-23T00:48:23;13.90;57.24
18361;SHT31;9308;48.550;9.108;2023-03-23T00:50:50;13.96;54.82
18361;SHT31;9308;48.550;9.108;2023-03-23T00:53:17;13.92;56.81
18361;SHT31;9308;48.550;9.108;2023-03-23T00:55:44;13.94;55.95
18361;SHT31;9308;48.550;9.108;2023-03-23T00:58:11;13.85;56.51
18361;SHT31;9308;48.550;9.108;2023-03-23T01:00:37;13.87;55.95
18361;SHT31;9308;48.550;9.108;2023-03-23T01:03:03;13.82;55.62
18361;SHT31;9308;48.550;9.108;2023-03-23T01:05:35;13.72;57.04
18361;SHT31;9308;48.550;9.108;2023-03-23T01:08:01;13.66;56.39
18361;SHT31;9308;48.550;9.108;2023-03-23T01:10:27;13.59;58.54
18361;SHT31;9308;48.550;9.108;2023-03-23T01:12:53;13.72;57.15
18361;SHT31;9308;48.550;9.108;2023-03-23T01:15:20;13.93;56.86
18361;SHT31;9308;48.550;9.108;2023-03-23T01:17:45;13.78;55.66
18361;SHT31;9308;48.550;9.108;2023-03-23T01:20:12;13.72;56.45
18361;SHT31;9308;48.550;9.108;2023-03-23T01:22:39;13.82;56.10
18361;SHT31;9308;48.550;9.108;2023-03-23T01:25:05;13.78;56.62
18361;SHT31;9308;48.550;9.108;2023-03-23T01:27:31;13.82;55.83
18361;SHT31;9308;48.550;9.108;2023-03-23T01:29:56;14.04;55.81
18361;SHT31;9308;48.550;9.108;2023-03-23T01:32:22;13.81;56.52
18361;SHT31;9308;48.550;9.108;2023-03-23T01:34:47;13.79;56.93
18361;SHT31;9308;48.550;9.108;2023-03-23T01:37:13;13.81;57.38
18361;SHT31;9308;48.550;9.108;2023-03-23T01:39:41;13.90;56.18
18361;SHT31;9308;48.550;9.108;2023-03-23T01:42:08;13.76;57.29
18361;SHT31;9308;48.550;9.108;2023-03-23T01:46:59;13.90;57.59
18361;SHT31;9308;48.550;9.108;2023-03-23T01:49:28;13.85;57.22
18361;SHT31;9308;48.550;9.108;2023-03-23T01:51:58;13.81;54.83
18361;SHT31;9308;48.550;9.108;2023-03-23T01:54:25;14.06;53.74
18361;SHT31;9308;48.550;9.108;2023-03-23T01:57:05;13.92;55.50
18361;SHT31;9308;48.550;9.108;2023-03-23T01:59:33;13.90;55.00
18361;SHT31;9308;48.550;9.108;2023-03-23T02:02:00;14.07;54.44
18361;SHT31;9308;48.550;9.108;2023-03-23T02:04:26;14.01;56.23
18361;SHT31;9308;48.550;9.108;2023-03-23T02:06:52;14.13;54.41
18361;SHT31;9308;48.550;9.108;2023-03-23T02:09:19;14.01;55.88
18361;SHT31;9308;48.550;9.108;2023-03-23T02:11:46;13.97;56.69
18361;SHT31;9308;48.550;9.108;2023-03-23T02:14:12;14.03;56.42
18361;SHT31;9308;48.550;9.108;2023-03-23T02:16:49;13.93;56.10
18361;SHT31;9308;48.550;9.108;2023-03-23T02:19:39;13.96;55.77
18361;SHT31;9308;48.550;9.108;2023-03-23T02:22:27;13.97;57.03
18361;SHT31;9308;48.550;9.108;2023-03-23T02:25:51;13.81;56.00
18361;SHT31;9308;48.550;9.108;2023-03-23T02:31:30;13.96;56.98
18361;SHT31;9308;48.550;9.108;2023-03-23T02:34:18;13.63;56.97
18361;SHT31;9308;48.550;9.108;2023-03-23T02:36:50;13.90;56.20
18361;SHT31;9308;48.550;9.108;2023-03-23T02:39:24;13.87;56.07
18361;SHT31;9308;48.550;9.108;2023-03-23T02:42:24;13.89;56.91
18361;SHT31;9308;48.550;9.108;2023-03-23T02:44:44;13.82;57.42
18361;SHT31;9308;48.550;9.108;2023-03-23T02:47:20;13.76;56.99
18361;SHT31;9308;48.550;9.108;2023-03-23T02:49:48;13.94;55.09
18361;SHT31;9308;48.550;9.108;2023-03-23T02:52:17;13.87;55.26
18361;SHT31;9308;48.550;9.108;2023-03-23T02:54:46;13.90;54.72
18361;SHT31;9308;48.550;9.108;2023-03-23T02:57:12;13.81;56.81
18361;SHT31;9308;48.550;9.108;2023-03-23T02:59:39;13.82;57.42
18361;SHT31;9308;48.550;9.108;2023-03-23T03:02:17;13.83;56.97
18361;SHT31;9308;48.550;9.108;2023-03-23T03:04:54;13.86;57.09
18361;SHT31;9308;48.550;9.108;2023-03-23T03:07:35;14.07;54.21
18361;SHT31;9308;48.550;9.108;2023-03-23T03:10:19;14.10;53.42
18361;SHT31;9308;48.550;9.108;2023-03-23T03:13:03;14.16;52.90
18361;SHT31;9308;48.550;9.108;2023-03-23T03:18:09;14.18;53.08
18361;SHT31;9308;48.550;9.108;2023-03-23T03:20:43;14.21;52.91
18361;SHT31;9308;48.550;9.108;2023-03-23T03:23:12;14.28;52.49
18361;SHT31;9308;48.550;9.108;2023-03-23T03:25:40;14.21;53.16
18361;SHT31;9308;48.550;9.108;2023-03-23T03:28:08;14.31;52.38
18361;SHT31;9308;48.550;9.108;2023-03-23T03:30:35;14.51;52.39
18361;SHT31;9308;48.550;9.108;2023-03-23T03:33:02;14.31;54.55
18361;SHT31;9308;48.550;9.108;2023-03-23T03:35:29;14.39;53.14
18361;SHT31;9308;48.550;9.108;2023-03-23T03:37:57;14.47;53.05
18361;SHT31;9308;48.550;9.108;2023-03-23T03:40:23;14.27;53.12
18361;SHT31;9308;48.550;9.108;2023-03-23T03:42:49;14.42;52.80
18361;SHT31;9308;48.550;9.108;2023-03-23T03:45:17;14.34;52.69
18361;SHT31;9308;48.550;9.108;2023-03-23T03:47:43;14.49;52.79
18361;SHT31;9308;48.550;9.108;2023-03-23T03:50:09;14.47;53.35
18361;SHT31;9308;48.550;9.108;2023-03-23T03:52:36;14.25;55.15
18361;SHT31;9308;48.550;9.108;2023-03-23T03:55:04;14.28;55.47
18361;SHT31;9308;48.550;9.108;2023-03-23T03:57:30;14.42;53.69
18361;SHT31;9308;48.550;9.108;2023-03-23T03:59:56;14.51;52.82
18361;SHT31;9308;48.550;9.108;2023-03-23T04:04:57;14.52;52.46
18361;SHT31;9308;48.550;9.108;2023-03-23T04:07:23;14.49;54.33
18361;SHT31;9308;48.550;9.108;2023-03-23T04:09:51;14.47;52.63
18361;SHT31;9308;48.550;9.108;2023-03-23T04:12:17;14.42;53.64
18361;SHT31;9308;48.550;9.108;2023-03-23T04:14:42;14.58;52.21
18361;SHT31;9308;48.550;9.108;2023-03-23T04:17:08;14.52;52.66
18361;SHT31;9308;48.550;9.108;2023-03-23T04:19:36;14.68;52.91
18361;SHT31;9308;48.550;9.108;2023-03-23T04:22:03;14.64;52.19
18361;SHT31;9308;48.550;9.108;2023-03-23T04:24:29;14.66;52.00
18361;SHT31;9308;48.550;9.108;2023-03-23T04:26:56;14.58;52.30
18361;SHT31;9308;48.550;9.108;2023-03-23T04:29:21;14.71;51.71
18361;SHT31;9308;48.550;9.108;2023-03-23T04:31:47;14.66;51.50
18361;SHT31;9308;48.550;9.108;2023-03-23T04:34:12;14.85;51.21
18361;SHT31;9308;48.550;9.108;2023-03-23T04:36:40;14.86;51.39
18361;SHT31;9308;48.550;9.108;2023-03-23T04:39:06;14.97;50.84
18361;SHT31;9308;48.550;9.108;2023-03-23T04:41:36;15.02;51.50
18361;SHT31;9308;48.550;9.108;2023-03-23T04:44:01;15.15;50.42
18361;SHT31;9308;48.550;9.108;2023-03-23T04:46:28;15.11;52.16
18361;SHT31;9308;48.550;9.108;2023-03-23T04:48:54;14.92;51.68
18361;SHT31;9308;48.550;9.108;2023-03-23T04:51:20;15.02;51.39
18361;SHT31;9308;48.550;9.108;2023-03-23T04:53:45;14.90;51.36
18361;SHT31;9308;48.550;9.108;2023-03-23T04:56:11;14.99;52.72
18361;SHT31;9308;48.550;9.108;2023-03-23T04:58:39;14.92;52.08
18361;SHT31;9308;48.550;9.108;2023-03-23T05:01:06;14.73;52.62
18361;SHT31;9308;48.550;9.108;2023-03-23T05:03:31;15.07;53.07
18361;SHT31;9308;48.550;9.108;2023-03-23T05:05:57;14.93;51.13
18361;SHT31;9308;48.550;9.108;2023-03-23T05:08:23;14.95;51.82
18361;SHT31;9308;48.550;9.108;2023-03-23T05:10:52;14.95;51.98
18361;SHT31;9308;48.550;9.108;2023-03-23T05:13:18;14.87;51.84
18361;SHT31;9308;48.550;9.108;2023-03-23T05:15:44;15.08;52.09
18361;SHT31;9308;48.550;9.108;2023-03-23T05:18:09;14.93;53.99
18361;SHT31;9308;48.550;9.108;2023-03-23T05:20:36;14.90;52.51
18361;SHT31;9308;48.550;9.108;2023-03-23T05:23:02;15.04;52.96
18361;SHT31;9308;48.550;9.108;2023-03-23T05:25:27;14.83;53.68
18361;SHT31;9308;48.550;9.108;2023-03-23T05:27:53;14.87;54.36
18361;SHT31;9308;48.550;9.108;2023-03-23T05:30:22;14.77;53.05
18361;SHT31;9308;48.550;9.108;2023-03-23T05:32:48;14.77;53.92
18361;SHT31;9308;48.550;9.108;2023-03-23T05:35:17;14.89;52.14
18361;SHT31;9308;48.550;9.108;2023-03-23T05:37:43;14.62;55.12
18361;SHT31;9308;48.550;9.108;2023-03-23T05:40:09;14.86;52.59
18361;SHT31;9308;48.550;9.108;2023-03-23T05:42:35;14.65;54.77
18361;SHT31;9308;48.550;9.108;2023-03-23T05:45:03;14.73;54.23
18361;SHT31;9308;48.550;9.108;2023-03-23T05:47:29;14.82;55.12
18361;SHT31;9308;48.550;9.108;2023-03-23T05:49:55;14.52;55.37
18361;SHT31;9308;48.550;9.108;2023-03-23T05:52:21;14.69;55.99
18361;SHT31;9308;48.550;9.108;2023-03-23T05:54:49;14.64;55.67
18361;SHT31;9308;48.550;9.108;2023-03-23T05:57:15;14.49;55.85
18361;SHT31;9308;48.550;9.108;2023-03-23T05:59:41;14.61;55.12
18361;SHT31;9308;48.550;9.108;2023-03-23T06:02:06;14.68;55.04
18361;SHT31;9308;48.550;9.108;2023-03-23T06:04:32;14.73;54.92
18361;SHT31;9308;48.550;9.108;2023-03-23T06:07:00;14.87;54.17
18361;SHT31;9308;48.550;9.108;2023-03-23T06:09:26;15.07;53.86
18361;SHT31;9308;48.550;9.108;2023-03-23T06:11:51;14.89;54.25
18361;SHT31;9308;48.550;9.108;2023-03-23T06:14:17;15.00;53.39
18361;SHT31;9308;48.550;9.108;2023-03-23T06:16:42;15.07;52.79
18361;SHT31;9308;48.550;9.108;2023-03-23T06:19:08;15.15;52.56
18361;SHT31;9308;48.550;9.108;2023-03-23T06:21:33;15.20;52.49
18361;SHT31;9308;48.550;9.108;2023-03-23T06:23:59;15.26;52.53
18361;SHT31;9308;48.550;9.108;2023-03-23T06:26:29;15.32;52.03
18361;SHT31;9308;48.550;9.108;2023-03-23T06:28:56;15.40;51.45
18361;SHT31;9308;48.550;9.108;2023-03-23T06:31:23;15.35;51.92
18361;SHT31;9308;48.550;9.108;2023-03-23T06:33:49;15.44;51.54
18361;SHT31;9308;48.550;9.108;2023-03-23T06:36:15;15.50;51.41
18361;SHT31;9308;48.550;9.108;2023-03-23T06:38:42;15.51;51.38
18361;SHT31;9308;48.550;9.108;2023-03-23T06:41:07;15.41;51.46
18361;SHT31;9308;48.550;9.108;2023-03-23T06:43:34;15.38;51.77
18361;SHT31;9308;48.550;9.108;2023-03-23T06:46:01;15.26;52.65
18361;SHT31;9308;48.550;9.108;2023-03-23T06:48:27;15.57;51.17
18361;SHT31;9308;48.550;9.108;2023-03-23T06:50:53;15.59;51.20
18361;SHT31;9308;48.550;9.108;2023-03-23T06:53:18;15.62;51.39
18361;SHT31;9308;48.550;9.108;2023-03-23T06:55:45;15.58;51.41
18361;SHT31;9308;48.550;9.108;2023-03-23T06:58:11;15.72;51.13
18361;SHT31;9308;48.550;9.108;2023-03-23T07:00:36;15.65;51.97
18361;SHT31;9308;48.550;9.108;2023-03-23T07:03:02;15.58;51.67
18361;SHT31;9308;48.550;9.108;2023-03-23T07:05:29;15.59;51.24
18361;SHT31;9308;48.550;9.108;2023-03-23T07:07:55;15.68;51.34
18361;SHT31;9308;48.550;9.108;2023-03-23T07:10:21;15.59;51.47
18361;SHT31;9308;48.550;9.108;2023-03-23T07:12:46;15.75;50.73
18361;SHT31;9308;48.550;9.108;2023-03-23T07:15:12;15.79;50.84
18361;SHT31;9308;48.550;9.108;2023-03-23T07:17:39;15.80;50.90
18361;SHT31;9308;48.550;9.108;2023-03-23T07:20:06;15.85;51.16
18361;SHT31;9308;48.550;9.108;2023-03-23T07:22:32;15.82;50.73
18361;SHT31;9308;48.550;9.108;2023-03-23T07:24:58;15.80;51.12
18361;SHT31;9308;48.550;9.108;2023-03-23T07:27:24;15.79;50.98
18361;SHT31;9308;48.550;9.108;2023-03-23T07:29:49;15.85;50.80
18361;SHT31;9308;48.550;9.108;2023-03-23T07:32:15;15.78;50.36
18361;SHT31;9308;48.550;9.108;2023-03-23T07:34:42;15.87;50.39
18361;SHT31;9308;48.550;9.108;2023-03-23T07:37:08;15.79;50.89
18361;SHT31;9308;48.550;9.108;2023-03-23T07:39:34;15.99;50.42
18361;SHT31;9308;48.550;9.108;2023-03-23T07:41:59;15.99;50.53
18361;SHT31;9308;48.550;9.108;2023-03-23T07:44:25;15.99;50.65
18361;SHT31;9308;48.550;9.108;2023-03-23T07:46:51;15.69;51.15
18361;SHT31;9308;48.550;9.108;2023-03-23T07:49:17;15.86;50.97
18361;SHT31;9308;48.550;9.108;2023-03-23T07:51:43;16.24;50.84
18361;SHT31;9308;48.550;9.108;2023-03-23T07:54:09;16.35;50.58
18361;SHT31;9308;48.550;9.108;2023-03-23T07:56:36;16.54;50.21
18361;SHT31;9308;48.550;9.108;2023-03-23T07:59:02;16.42;49.93
18361;SHT31;9308;48.550;9.108;2023-03-23T08:01:30;16.31;50.75
18361;SHT31;9308;48.550;9.108;2023-03-23T08:03:56;16.52;50.34
18361;SHT31;9308;48.550;9.108;2023-03-23T08:06:23;16.56;50.21
18361;SHT31;9308;48.550;9.108;2023-03-23T08:08:49;16.62;49.82
18361;SHT31;9308;48.550;9.108;2023-03-23T08:11:15;16.58;50.16
18361;SHT31;9308;48.550;9.108;2023-03-23T08:13:41;16.48;50.74
18361;SHT31;9308;48.550;9.108;2023-03-23T08:16:08;16.49;50.38
18361;SHT31;9308;48.550;9.108;2023-03-23T08:18:35;16.47;51.01
18361;SHT31;9308;48.550;9.108;2023-03-23T08:21:03;16.44;51.09
18361;SHT31;9308;48.550;9.108;2023-03-23T08:23:30;16.33;51.71
18361;SHT31;9308;48.550;9.108;2023-03-23T08:25:56;16.41;51.55
18361;SHT31;9308;48.550;9.108;2023-03-23T08:28:22;16.66;50.72
18361;SHT31;9308;48.550;9.108;2023-03-23T08:30:47;16.76;51.64
18361;SHT31;9308;48.550;9.108;2023-03-23T08:33:13;16.69;51.76
18361;SHT31;9308;48.550;9.108;2023-03-23T08:35:39;16.80;51.96
18361;SHT31;9308;48.550;9.108;2023-03-23T08:38:05;16.30;53.27
18361;SHT31;9308;48.550;9.108;2023-03-23T08:40:31;16.27;53.81
18361;SHT31;9308;48.550;9.108;2023-03-23T08:42:57;15.99;54.55
18361;SHT31;9308;48.550;9.108;2023-03-23T08:45:24;16.05;54.29
18361;SHT31;9308;48.550;9.108;2023-03-23T08:47:50;16.17;54.26
18361;SHT31;9308;48.550;9.108;2023-03-23T08:50:23;16.33;54.43
18361;SHT31;9308;48.550;9.108;2023-03-23T08:52:49;16.31;54.55
18361;SHT31;9308;48.550;9.108;2023-03-23T08:55:16;16.73;53.80
18361;SHT31;9308;48.550;9.108;2023-03-23T08:57:43;16.91;53.22
18361;SHT31;9308;48.550;9.108;2023-03-23T09:00:12;17.00;52.87
18361;SHT31;9308;48.550;9.108;2023-03-23T09:02:42;16.68;53.49
18361;SHT31;9308;48.550;9.108;2023-03-23T09:05:09;16.52;54.32
18361;SHT31;9308;48.550;9.108;2023-03-23T09:07:40;16.35;54.54
18361;SHT31;9308;48.550;9.108;2023-03-23T09:10:07;16.56;54.44
18361;SHT31;9308;48.550;9.108;2023-03-23T09:12:33;16.42;55.12
18361;SHT31;9308;48.550;9.108;2023-03-23T09:14:59;16.54;54.54
18361;SHT31;9308;48.550;9.108;2023-03-23T09:17:24;16.77;54.25
18361;SHT31;9308;48.550;9.108;2023-03-23T09:19:50;16.68;54.37
18361;SHT31;9308;48.550;9.108;2023-03-23T09:22:16;16.58;54.82
18361;SHT31;9308;48.550;9.108;2023-03-23T09:24:45;16.76;54.07
18361;SHT31;9308;48.550;9.108;2023-03-23T09:27:11;16.98;53.74
18361;SHT31;9308;48.550;9.108;2023-03-23T09:29:37;17.32;53.16
18361;SHT31;9308;48.550;9.108;2023-03-23T09:32:03;17.61;52.27
18361;SHT31;9308;48.550;9.108;2023-03-23T09:34:29;17.35;52.88
18361;SHT31;9308;48.550;9.108;2023-03-23T09:36:54;17.37;52.60
18361;SHT31;9308;48.550;9.108;2023-03-23T09:39:20;17.44;52.75
18361;SHT31;9308;48.550;9.108;2023-03-23T09:42:16;17.07;53.26
18361;SHT31;9308;48.550;9.108;2023-03-23T09:45:10;16.65;54.28
18361;SHT31;9308;48.550;9.108;2023-03-23T09:50:15;16.93;53.91
18361;SHT31;9308;48.550;9.108;2023-03-23T09:53:15;17.31;53.17
18361;SHT31;9308;48.550;9.108;2023-03-23T09:55:43;17.30;53.21
18361;SHT31;9308;48.550;9.108;2023-03-23T09:58:18;17.14;53.30
18361;SHT31;9308;48.550;9.108;2023-03-23T10:01:10;17.41;53.30
18361;SHT31;9308;48.550;9.108;2023-03-23T10:03:43;17.41;52.71
18361;SHT31;9308;48.550;9.108;2023-03-23T10:06:14;17.49;52.26
18361;SHT31;9308;48.550;9.108;2023-03-23T10:08:50;17.76;51.24
18361;SHT31;9308;48.550;9.108;2023-03-23T10:19:47;18.55;50.41
18361;SHT31;9308;48.550;9.108;2023-03-23T10:22:17;18.44;50.33
18361;SHT31;9308;48.550;9.108;2023-03-23T10:24:57;18.62;51.11
18361;SHT31;9308;48.550;9.108;2023-03-23T10:27:32;18.41;50.55
18361;SHT31;9308;48.550;9.108;2023-03-23T10:30:12;17.97;50.92
18361;SHT31;9308;48.550;9.108;2023-03-23T10:32:43;17.65;51.66
18361;SHT31;9308;48.550;9.108;2023-03-23T10:35:37;17.79;51.60
18361;SHT31;9308;48.550;9.108;2023-03-23T10:38:16;17.58;52.05
18361;SHT31;9308;48.550;9.108;2023-03-23T10:41:02;17.61;53.19
18361;SHT31;9308;48.550;9.108;2023-03-23T10:43:29;17.83;52.70
18361;SHT31;9308;48.550;9.108;2023-03-23T10:45:59;17.96;52.75
18361;SHT31;9308;48.550;9.108;2023-03-23T10:48:33;17.72;52.83
18361;SHT31;9308;48.550;9.108;2023-03-23T10:51:04;18.09;52.00
18361;SHT31;9308;48.550;9.108;2023-03-23T10:53:37;18.17;52.02
18361;SHT31;9308;48.550;9.108;2023-03-23T10:56:03;17.97;51.48
18361;SHT31;9308;48.550;9.108;2023-03-23T10:58:31;18.13;50.54
18361;SHT31;9308;48.550;9.108;2023-03-23T11:00:59;18.40;51.00
18361;SHT31;9308;48.550;9.108;2023-03-23T11:03:44;19.11;49.94
18361;SHT31;9308;48.550;9.108;2023-03-23T11:06:17;19.23;49.89
18361;SHT31;9308;48.550;9.108;2023-03-23T11:08:50;19.09;48.75
18361;SHT31;9308;48.550;9.108;2023-03-23T11:13:48;18.93;48.99
18361;SHT31;9308;48.550;9.108;2023-03-23T11:16:28;18.81;49.33
18361;SHT31;9308;48.550;9.108;2023-03-23T11:18:54;18.90;49.50
18361;SHT31;9308;48.550;9.108;2023-03-23T11:21:22;18.82;50.41
18361;SHT31;9308;48.550;9.108;2023-03-23T11:23:53;18.67;50.25
18361;SHT31;9308;48.550;9.108;2023-03-23T11:26:26;19.36;48.89
18361;SHT31;9308;48.550;9.108;2023-03-23T11:29:02;19.53;48.27
18361;SHT31;9308;48.550;9.108;2023-03-23T11:31:36;19.58;48.28
18361;SHT31;9308;48.550;9.108;2023-03-23T11:34:05;19.20;48.46
18361;SHT31;9308;48.550;9.108;2023-03-23T11:36:37;19.38;48.71
18361;SHT31;9308;48.550;9.108;2023-03-23T11:39:20;19.23;48.86
18361;SHT31;9308;48.550;9.108;2023-03-23T11:41:46;20.26;46.63
18361;SHT31;9308;48.550;9.108;2023-03-23T11:44:12;20.59;45.26
18361;SHT31;9308;48.550;9.108;2023-03-23T11:46:48;20.16;46.19
18361;SHT31;9308;48.550;9.108;2023-03-23T11:52:36;19.47;47.93
18361;SHT31;9308;48.550;9.108;2023-03-23T11:55:12;19.26;48.19
18361;SHT31;9308;48.550;9.108;2023-03-23T11:57:39;18.98;48.21
18361;SHT31;9308;48.550;9.108;2023-03-23T12:00:19;19.14;48.27
18361;SHT31;9308;48.550;9.108;2023-03-23T12:02:59;19.17;48.20
18361;SHT31;9308;48.550;9.108;2023-03-23T12:05:40;19.28;48.26
18361;SHT31;9308;48.550;9.108;2023-03-23T12:11:31;19.57;47.82
18361;SHT31;9308;48.550;9.108;2023-03-23T12:27:36;19.27;46.87
18361;SHT31;9308;48.550;9.108;2023-03-23T12:30:45;19.09;46.93
18361;SHT31;9308;48.550;9.108;2023-03-23T12:33:22;18.54;46.81
18361;SHT31;9308;48.550;9.108;2023-03-23T12:38:31;18.55;47.94
18361;SHT31;9308;48.550;9.108;2023-03-23T12:41:17;18.35;47.74
18361;SHT31;9308;48.550;9.108;2023-03-23T12:46:43;18.38;47.18
18361;SHT31;9308;48.550;9.108;2023-03-23T12:49:16;18.62;47.45
18361;SHT31;9308;48.550;9.108;2023-03-23T12:51:49;18.58;47.65
18361;SHT31;9308;48.550;9.108;2023-03-23T12:57:13;18.76;46.59
18361;SHT31;9308;48.550;9.108;2023-03-23T13:05:42;19.26;46.12
18361;SHT31;9308;48.550;9.108;2023-03-23T13:08:19;19.00;46.37
18361;SHT31;9308;48.550;9.108;2023-03-23T13:10:49;19.03;46.40
18361;SHT31;9308;48.550;9.108;2023-03-23T13:13:19;19.41;45.13
18361;SHT31;9308;48.550;9.108;2023-03-23T13:16:00;19.40;45.94
18361;SHT31;9308;48.550;9.108;2023-03-23T13:18:37;19.81;45.16
18361;SHT31;9308;48.550;9.108;2023-03-23T13:21:26;19.89;44.77
18361;SHT31;9308;48.550;9.108;2023-03-23T13:23:59;19.95;44.47
18361;SHT31;9308;48.550;9.108;2023-03-23T13:26:28;19.78;44.92
18361;SHT31;9308;48.550;9.108;2023-03-23T13:28:58;19.92;44.91
18361;SHT31;9308;48.550;9.108;2023-03-23T13:31:28;19.48;45.42
18361;SHT31;9308;48.550;9.108;2023-03-23T13:34:04;19.11;45.86
18361;SHT31;9308;48.550;9.108;2023-03-23T13:36:42;18.93;46.12
18361;SHT31;9308;48.550;9.108;2023-03-23T13:39:20;18.83;47.03
18361;SHT31;9308;48.550;9.108;2023-03-23T13:41:48;18.72;46.83
18361;SHT31;9308;48.550;9.108;2023-03-23T13:44:23;18.95;46.42
18361;SHT31;9308;48.550;9.108;2023-03-23T13:47:07;19.06;46.29
18361;SHT31;9308;48.550;9.108;2023-03-23T13:49:44;19.06;46.77
18361;SHT31;9308;48.550;9.108;2023-03-23T14:03:05;19.03;46.40
18361;SHT31;9308;48.550;9.108;2023-03-23T14:05:39;18.93;46.26
18361;SHT31;9308;48.550;9.108;2023-03-23T14:08:12;18.54;45.33
18361;SHT31;9308;48.550;9.108;2023-03-23T14:13:32;18.21;46.01
18361;SHT31;9308;48.550;9.108;2023-03-23T14:16:03;18.24;46.56
18361;SHT31;9308;48.550;9.108;2023-03-23T14:18:49;18.23;45.97
18361;SHT31;9308;48.550;9.108;2023-03-23T14:21:21;17.95;46.61
18361;SHT31;9308;48.550;9.108;2023-03-23T14:23:47;18.34;46.06
18361;SHT31;9308;48.550;9.108;2023-03-23T14:26:17;18.38;45.66
18361;SHT31;9308;48.550;9.108;2023-03-23T14:28:45;18.52;46.08
18361;SHT31;9308;48.550;9.108;2023-03-23T14:31:22;18.30;46.30
18361;SHT31;9308;48.550;9.108;2023-03-23T14:33:49;18.43;45.90
18361;SHT31;9308;48.550;9.108;2023-03-23T14:36:29;18.55;46.03
18361;SHT31;9308;48.550;9.108;2023-03-23T14:39:05;18.40;45.92
18361;SHT31;9308;48.550;9.108;2023-03-23T14:41:33;18.28;46.35
18361;SHT31;9308;48.550;9.108;2023-03-23T14:44:02;18.30;46.67
18361;SHT31;9308;48.550;9.108;2023-03-23T14:46:30;18.52;46.37
18361;SHT31;9308;48.550;9.108;2023-03-23T14:48:56;18.48;46.13
18361;SHT31;9308;48.550;9.108;2023-03-23T14:51:24;18.35;46.50
18361;SHT31;9308;48.550;9.108;2023-03-23T14:53:52;18.52;46.32
18361;SHT31;9308;48.550;9.108;2023-03-23T14:56:20;18.54;46.41
18361;SHT31;9308;48.550;9.108;2023-03-23T14:58:49;18.45;45.82
18361;SHT31;9308;48.550;9.108;2023-03-23T15:01:20;18.41;46.21
18361;SHT31;9308;48.550;9.108;2023-03-23T15:04:00;18.33;45.70
18361;SHT31;9308;48.550;9.108;2023-03-23T15:06:32;18.03;46.06
18361;SHT31;9308;48.550;9.108;2023-03-23T15:09:01;18.05;46.03
18361;SHT31;9308;48.550;9.108;2023-03-23T15:11:30;17.85;46.26
18361;SHT31;9308;48.550;9.108;2023-03-23T15:13:59;18.06;46.03
18361;SHT31;9308;48.550;9.108;2023-03-23T15:16:31;17.97;45.81
18361;SHT31;9308;48.550;9.108;2023-03-23T15:19:03;17.97;45.93
18361;SHT31;9308;48.550;9.108;2023-03-23T15:21:30;17.90;46.04
18361;SHT31;9308;48.550;9.108;2023-03-23T15:23:56;17.81;46.47
18361;SHT31;9308;48.550;9.108;2023-03-23T15:29:10;17.75;46.57
18361;SHT31;9308;48.550;9.108;2023-03-23T15:31:55;17.61;46.85
18361;SHT31;9308;48.550;9.108;2023-03-23T15:34:29;17.76;46.94
18361;SHT31;9308;48.550;9.108;2023-03-23T15:37:03;17.81;46.98
18361;SHT31;9308;48.550;9.108;2023-03-23T15:39:31;17.54;47.38
18361;SHT31;9308;48.550;9.108;2023-03-23T15:41:58;17.40;47.45
18361;SHT31;9308;48.550;9.108;2023-03-23T15:44:32;17.40;47.68
18361;SHT31;9308;48.550;9.108;2023-03-23T15:47:10;17.32;48.00
18361;SHT31;9308;48.550;9.108;2023-03-23T15:49:36;17.47;47.69
18361;SHT31;9308;48.550;9.108;2023-03-23T15:52:01;17.45;47.62
18361;SHT31;9308;48.550;9.108;2023-03-23T15:54:30;17.47;48.03
18361;SHT31;9308;48.550;9.108;2023-03-23T15:56:56;17.52;47.97
18361;SHT31;9308;48.550;9.108;2023-03-23T15:59:22;17.45;47.94
18361;SHT31;9308;48.550;9.108;2023-03-23T16:01:47;17.42;47.68
18361;SHT31;9308;48.550;9.108;2023-03-23T16:04:16;17.34;47.95
18361;SHT31;9308;48.550;9.108;2023-03-23T16:06:43;17.13;48.36
18361;SHT31;9308;48.550;9.108;2023-03-23T16:09:15;17.16;48.32
18361;SHT31;9308;48.550;9.108;2023-03-23T16:11:41;17.06;48.53
18361;SHT31;9308;48.550;9.108;2023-03-23T16:14:07;17.04;48.62
18361;SHT31;9308;48.550;9.108;2023-03-23T16:16:36;17.17;48.67
18361;SHT31;9308;48.550;9.108;2023-03-23T16:19:02;17.24;48.85
18361;SHT31;9308;48.550;9.108;2023-03-23T16:21:28;17.16;49.18
18361;SHT31;9308;48.550;9.108;2023-03-23T16:23:55;17.37;48.86
18361;SHT31;9308;48.550;9.108;2023-03-23T16:26:20;17.42;48.79
18361;SHT31;9308;48.550;9.108;2023-03-23T16:28:46;17.47;48.62
18361;SHT31;9308;48.550;9.108;2023-03-23T16:31:11;17.59;48.61
18361;SHT31;9308;48.550;9.108;2023-03-23T16:33:37;17.74;48.17
18361;SHT31;9308;48.550;9.108;2023-03-23T16:36:03;17.69;48.39
18361;SHT31;9308;48.550;9.108;2023-03-23T16:38:28;17.93;48.01
18361;SHT31;9308;48.550;9.108;2023-03-23T16:40:54;17.76;48.19
18361;SHT31;9308;48.550;9.108;2023-03-23T16:43:20;17.72;48.80
18361;SHT31;9308;48.550;9.108;2023-03-23T16:45:46;17.81;48.28
18361;SHT31;9308;48.550;9.108;2023-03-23T16:48:13;17.95;47.95
18361;SHT31;9308;48.550;9.108;2023-03-23T16:50:40;17.89;48.02
18361;SHT31;9308;48.550;9.108;2023-03-23T16:53:07;17.93;48.30
18361;SHT31;9308;48.550;9.108;2023-03-23T16:55:34;17.67;48.81
18361;SHT31;9308;48.550;9.108;2023-03-23T16:58:00;17.61;49.32
18361;SHT31;9308;48.550;9.108;2023-03-23T17:00:26;17.71;48.89
18361;SHT31;9308;48.550;9.108;2023-03-23T17:02:53;17.74;49.58
18361;SHT31;9308;48.550;9.108;2023-03-23T17:05:23;17.72;49.41
18361;SHT31;9308;48.550;9.108;2023-03-23T17:07:48;17.78;49.71
18361;SHT31;9308;48.550;9.108;2023-03-23T17:10:15;17.82;49.43
18361;SHT31;9308;48.550;9.108;2023-03-23T17:12:41;17.72;49.87
18361;SHT31;9308;48.550;9.108;2023-03-23T17:15:07;17.72;49.62